Time;durP1;ratioP1;P1;durP2;ratioP2;P2;SDS_P1;SDS_P2;PMS_P1;PMS_P2;Temp;Humidity;BMP_temperature;BMP_pressure;BME280_temperature;BME280_humidity;BME280_pressure;Samples;Min_cycle;Max_cycle;Signal;HPM_P1;HPM_P2
2022/08/23 00:02:05;;;;;;;7.90;7.30;;;19.70;99.90;;;;;;2616043;47;20407;-78
2022/08/23 00:17:49;;;;;;;8.67;7.87;;;19.60;99.90;;;;;;2616651;54;20508;-77
2022/08/23 00:23:37;;;;;;;8.57;7.80;;;19.50;99.90;;;;;;2616192;54;20382;-77
2022/08/23 00:29:29;;;;;;;8.20;7.50;;;19.40;99.90;;;;;;2616309;46;20473;-77
2022/08/23 00:35:19;;;;;;;11.03;10.10;;;19.40;99.90;;;;;;2616618;54;20475;-77
2022/08/23 00:38:24;;;;;;;8.50;7.73;;;19.30;99.90;;;;;;2616241;54;20407;-78
2022/08/23 00:40:52;;;;;;;7.77;7.07;;;19.20;99.90;;;;;;2615781;47;20419;-77
2022/08/23 00:59:25;;;;;;;10.50;9.43;;;18.50;99.90;;;;;;2615577;54;20949;-85
2022/08/23 01:02:06;;;;;;;11.30;10.10;;;18.40;99.90;;;;;;2615263;54;20403;-84
2022/08/23 01:08:39;;;;;;;10.23;9.43;;;18.30;99.90;;;;;;2615166;54;20469;-84
2022/08/23 01:14:53;;;;;;;9.17;8.37;;;18.10;99.90;;;;;;2615635;54;20386;-84
2022/08/23 01:26:59;;;;;;;10.10;9.20;;;18.10;99.90;;;;;;2616634;39;20793;-79
2022/08/23 01:32:52;;;;;;;10.00;9.00;;;17.90;99.90;;;;;;2617011;54;20407;-77
2022/08/23 01:38:40;;;;;;;10.07;9.27;;;17.80;99.90;;;;;;2617198;54;20401;-77
2022/08/23 01:44:28;;;;;;;10.83;10.00;;;17.60;99.90;;;;;;2617086;54;20395;-77
2022/08/23 01:50:16;;;;;;;10.63;9.73;;;17.40;99.90;;;;;;2617153;54;20252;-77
2022/08/23 01:56:06;;;;;;;13.10;10.77;;;17.30;99.90;;;;;;2616942;46;20415;-78
2022/08/23 02:01:53;;;;;;;11.53;10.53;;;17.10;99.90;;;;;;2616800;54;20418;-77
2022/08/23 02:11:16;;;;;;;12.83;11.50;;;17.10;99.90;;;;;;2616764;54;20989;-77
2022/08/23 02:17:04;;;;;;;11.67;10.70;;;16.90;99.90;;;;;;2616863;39;20877;-79
2022/08/23 02:22:52;;;;;;;11.67;10.77;;;16.80;99.90;;;;;;2616414;54;20128;-79
2022/08/23 02:28:40;;;;;;;11.57;10.63;;;16.70;99.90;;;;;;2616523;54;20606;-79
2022/08/23 02:34:29;;;;;;;11.47;10.40;;;16.70;99.90;;;;;;2616445;54;20430;-78
2022/08/23 02:40:17;;;;;;;12.33;11.43;;;16.50;99.90;;;;;;2616709;54;20418;-78
2022/08/23 02:46:09;;;;;;;12.93;11.83;;;16.60;99.90;;;;;;2616513;54;20356;-81
2022/08/23 02:51:56;;;;;;;12.27;11.07;;;16.50;99.90;;;;;;2616983;54;20421;-78
2022/08/23 02:57:45;;;;;;;13.23;11.97;;;16.60;99.90;;;;;;2616944;54;20156;-76
2022/08/23 03:03:32;;;;;;;11.97;10.97;;;16.60;99.90;;;;;;2616450;54;20119;-81
2022/08/23 03:06:35;;;;;;;14.93;11.57;;;16.50;99.90;;;;;;2616455;54;20398;-80
2022/08/23 03:09:03;;;;;;;12.57;11.40;;;16.50;99.90;;;;;;2616530;54;20709;-80
2022/08/23 03:14:52;;;;;;;13.33;11.97;;;16.40;99.90;;;;;;2616259;54;20390;-80
2022/08/23 03:20:41;;;;;;;15.20;13.80;;;16.30;99.90;;;;;;2617005;39;20622;-81
2022/08/23 03:26:28;;;;;;;12.93;11.93;;;16.20;99.90;;;;;;2616763;54;20378;-79
2022/08/23 03:32:17;;;;;;;13.70;12.70;;;16.20;99.90;;;;;;2616718;54;20777;-79
2022/08/23 03:38:05;;;;;;;13.80;12.50;;;16.20;99.90;;;;;;2616341;54;20376;-80
2022/08/23 03:43:52;;;;;;;14.93;11.90;;;16.10;99.90;;;;;;2616638;54;20228;-79
2022/08/23 03:49:40;;;;;;;14.30;13.00;;;15.90;99.90;;;;;;2616145;54;20258;-80
2022/08/23 03:55:28;;;;;;;12.43;11.53;;;15.80;99.90;;;;;;2616063;54;20364;-80
2022/08/23 04:01:16;;;;;;;13.80;12.50;;;15.80;99.90;;;;;;2616456;54;20160;-80
2022/08/23 04:11:10;;;;;;;15.50;13.80;;;15.70;99.90;;;;;;2616499;54;20412;-81
2022/08/23 04:16:57;;;;;;;13.83;12.73;;;15.50;99.90;;;;;;2616818;54;20422;-83
2022/08/23 04:22:51;;;;;;;14.40;13.20;;;15.50;99.90;;;;;;2618549;54;20450;-80
2022/08/23 04:28:39;;;;;;;14.17;13.07;;;15.50;99.90;;;;;;2618951;54;20425;-81
2022/08/23 04:34:27;;;;;;;15.07;13.93;;;15.50;99.90;;;;;;2618684;54;20135;-81
2022/08/23 04:46:21;;;;;;;14.50;13.40;;;15.40;99.90;;;;;;2618441;54;20416;-80
2022/08/23 04:52:10;;;;;;;16.30;14.47;;;15.50;99.90;;;;;;2618091;54;20392;-80
2022/08/23 04:57:58;;;;;;;14.67;13.30;;;15.50;99.90;;;;;;2617712;54;20396;-80
2022/08/23 05:03:46;;;;;;;15.53;13.97;;;15.60;99.90;;;;;;2618864;39;20492;-81
2022/08/23 05:09:41;;;;;;;14.67;13.37;;;15.80;99.90;;;;;;2614893;54;20174;-78
2022/08/23 05:15:28;;;;;;;15.03;13.43;;;16.00;99.90;;;;;;2614696;54;20140;-77
2022/08/23 05:21:21;;;;;;;14.77;13.50;;;16.20;99.90;;;;;;2614979;54;20146;-78
2022/08/23 05:27:08;;;;;;;15.77;14.57;;;16.40;99.90;;;;;;2614441;54;20435;-77
2022/08/23 05:32:56;;;;;;;13.70;11.77;;;17.70;99.90;;;;;;2614605;54;20482;-78
2022/08/23 05:38:45;;;;;;;13.03;11.93;;;19.20;99.90;;;;;;2614588;54;20139;-78
2022/08/23 05:44:33;;;;;;;13.33;12.10;;;19.80;99.90;;;;;;2614695;46;20395;-78
2022/08/23 05:50:21;;;;;;;12.73;11.50;;;20.20;99.90;;;;;;2615837;54;20950;-78
2022/08/23 06:02:24;;;;;;;14.50;13.10;;;21.50;99.90;;;;;;2616596;54;20460;-77
2022/08/23 06:11:43;;;;;;;11.67;10.77;;;22.20;99.90;;;;;;2616762;54;20508;-79
2022/08/23 06:17:31;;;;;;;11.27;10.23;;;22.60;98.70;;;;;;2616658;54;20370;-79
2022/08/23 06:23:18;;;;;;;11.90;10.80;;;22.70;90.40;;;;;;2617160;54;20376;-79
2022/08/23 06:29:09;;;;;;;18.30;11.60;;;23.60;43.20;;;;;;2616827;54;20137;-78
2022/08/23 06:34:57;;;;;;;9.50;8.50;;;24.30;32.20;;;;;;2616939;54;20983;-80
2022/08/23 06:40:44;;;;;;;10.93;9.83;;;23.80;24.40;;;;;;2617164;39;20516;-80
2022/08/23 06:46:33;;;;;;;10.00;8.07;;;24.80;25.90;;;;;;2616583;54;20127;-79
2022/08/23 06:52:20;;;;;;;8.57;7.73;;;25.40;14.50;;;;;;2616700;54;20481;-82
2022/08/23 06:58:08;;;;;;;12.23;8.10;;;25.30;14.50;;;;;;2616681;54;20122;-79
2022/08/23 07:03:56;;;;;;;8.27;7.53;;;25.60;11.50;;;;;;2616831;54;20120;-79
2022/08/23 07:09:53;;;;;;;8.20;7.60;;;25.00;11.70;;;;;;2615767;39;20875;-77
2022/08/23 07:15:39;;;;;;;7.80;7.10;;;26.20;9.60;;;;;;2615565;54;20143;-82
2022/08/23 07:21:27;;;;;;;8.10;7.33;;;25.30;8.00;;;;;;2615594;54;20144;-81
2022/08/23 07:27:14;;;;;;;8.70;7.70;;;25.70;8.70;;;;;;2615204;54;20378;-78
2022/08/23 07:33:01;;;;;;;7.17;6.60;;;25.00;7.80;;;;;;2615433;54;20384;-78
2022/08/23 07:38:49;;;;;;;7.67;6.97;;;25.60;7.20;;;;;;2615467;54;20118;-77
2022/08/23 07:44:36;;;;;;;7.60;7.10;;;25.40;7.10;;;;;;2615298;54;20129;-78
2022/08/23 07:50:24;;;;;;;7.77;7.10;;;26.60;7.50;;;;;;2616657;54;20704;-77
2022/08/23 07:56:14;;;;;;;9.70;8.73;;;25.20;5.00;;;;;;2616382;54;20155;-76
2022/08/23 08:02:04;;;;;;;8.73;7.80;;;26.10;4.50;;;;;;2616827;54;20918;-78
2022/08/23 08:11:44;;;;;;;8.83;8.13;;;26.70;5.00;;;;;;2617127;54;20427;-77
2022/08/23 08:17:32;;;;;;;8.77;8.07;;;27.60;3.20;;;;;;2616596;54;20613;-78
2022/08/23 08:23:20;;;;;;;10.43;8.40;;;27.20;3.80;;;;;;2616737;54;20385;-78
2022/08/23 08:29:10;;;;;;;9.60;8.80;;;27.60;2.50;;;;;;2616827;54;20255;-78
2022/08/23 08:34:58;;;;;;;11.30;8.23;;;27.10;3.50;;;;;;2616422;54;20439;-78
2022/08/23 08:40:52;;;;;;;7.93;7.33;;;27.70;2.40;;;;;;2617330;54;20152;-78
2022/08/23 08:46:46;;;;;;;9.03;8.13;;;28.10;1.20;;;;;;2616477;54;20374;-78
2022/08/23 08:58:51;;;;;;;9.00;8.20;;;27.70;1.10;;;;;;2617152;54;20493;-80
2022/08/23 09:04:39;;;;;;;8.60;7.50;;;27.40;1.00;;;;;;2616428;54;20945;-80
2022/08/23 09:23:22;;;;;;;8.50;7.80;;;28.20;1.00;;;;;;2616063;54;20395;-80
2022/08/23 09:29:33;;;;;;;8.77;7.90;;;29.40;1.00;;;;;;2616192;39;20734;-81
2022/08/23 09:35:24;;;;;;;9.93;8.20;;;28.80;1.00;;;;;;2616640;54;20518;-81
2022/08/23 09:41:19;;;;;;;11.07;8.50;;;29.30;1.00;;;;;;2616611;54;20397;-80
2022/08/23 09:47:13;;;;;;;9.57;8.63;;;29.60;1.00;;;;;;2616925;54;20392;-80
2022/08/23 09:59:25;;;;;;;9.10;8.40;;;31.10;1.00;;;;;;2617541;54;20495;-82
2022/08/23 10:15:15;;;;;;;9.57;8.97;;;30.10;1.00;;;;;;2617315;54;20473;-83
2022/08/23 10:37:58;;;;;;;9.37;8.23;;;29.90;1.00;;;;;;2615356;54;20432;-81
2022/08/23 10:54:47;;;;;;;9.90;9.20;;;31.10;1.00;;;;;;2614813;54;21011;-80
2022/08/23 11:14:01;;;;;;;8.50;7.70;;;31.00;1.00;;;;;;2615892;54;20359;-83
2022/08/23 11:20:01;;;;;;;8.60;7.90;;;30.50;1.00;;;;;;2616041;54;20531;-82
2022/08/23 11:25:48;;;;;;;9.07;8.53;;;30.90;1.00;;;;;;2615673;54;20453;-83
2022/08/23 11:31:46;;;;;;;8.20;7.67;;;31.40;1.00;;;;;;2617162;46;20492;-83
2022/08/23 11:37:48;;;;;;;11.30;9.10;;;31.60;1.00;;;;;;2617589;54;20515;-84
2022/08/23 11:43:39;;;;;;;9.17;8.57;;;31.50;1.00;;;;;;2617566;54;20467;-83
2022/08/23 11:49:27;;;;;;;7.93;7.33;;;32.30;1.00;;;;;;2617446;46;20391;-82
2022/08/23 12:01:41;;;;;;;7.50;6.77;;;30.70;1.00;;;;;;2618828;54;20399;-90
2022/08/23 12:17:25;;;;;;;7.77;7.10;;;31.30;1.00;;;;;;2621027;54;20363;-89
2022/08/23 12:23:16;;;;;;;9.07;8.20;;;31.60;1.00;;;;;;2618584;54;20397;-88
2022/08/23 12:35:51;;;;;;;7.87;7.17;;;31.50;1.00;;;;;;2619778;54;20469;-89
2022/08/23 12:41:58;;;;;;;8.13;7.43;;;32.20;1.00;;;;;;2619401;54;20415;-85
2022/08/23 12:48:01;;;;;;;6.87;6.43;;;32.20;1.00;;;;;;2618009;39;20794;-84
2022/08/23 12:53:49;;;;;;;7.90;7.40;;;32.20;1.00;;;;;;2617209;54;20406;-83
2022/08/23 12:59:41;;;;;;;9.90;6.67;;;31.10;1.00;;;;;;2617683;54;20658;-83
2022/08/23 13:05:44;;;;;;;8.07;7.57;;;32.20;1.00;;;;;;2616822;54;20367;-79
2022/08/23 13:11:33;;;;;;;6.87;6.47;;;32.20;1.00;;;;;;2617391;54;20442;-80
2022/08/23 13:17:24;;;;;;;8.00;7.23;;;31.30;1.00;;;;;;2617478;54;20409;-79
2022/08/23 13:23:16;;;;;;;6.77;6.33;;;32.40;1.00;;;;;;2617917;39;20841;-80
2022/08/23 13:35:47;;;;;;;7.10;6.60;;;32.20;1.00;;;;;;2617154;54;20395;-81
2022/08/23 13:41:35;;;;;;;6.83;6.23;;;32.70;1.00;;;;;;2617845;54;20339;-79
2022/08/23 13:47:27;;;;;;;6.80;6.17;;;32.90;1.00;;;;;;2617276;54;20412;-81
2022/08/23 13:53:14;;;;;;;7.63;7.13;;;33.60;1.00;;;;;;2617464;54;20406;-78
2022/08/23 13:59:24;;;;;;;7.57;7.00;;;33.30;1.00;;;;;;2617374;54;20150;-80
2022/08/23 14:05:11;;;;;;;8.13;6.47;;;32.20;1.00;;;;;;2617888;54;20415;-80
2022/08/23 14:10:59;;;;;;;16.73;7.77;;;30.70;1.00;;;;;;2618273;39;20608;-79
2022/08/23 14:16:47;;;;;;;7.63;6.77;;;32.70;1.00;;;;;;2617209;54;20138;-80
2022/08/23 14:22:35;;;;;;;7.23;6.73;;;32.30;1.00;;;;;;2618383;39;20510;-79
2022/08/23 14:28:26;;;;;;;7.70;7.00;;;31.70;1.00;;;;;;2619896;54;20182;-81
2022/08/23 14:34:14;;;;;;;10.90;7.77;;;32.20;1.00;;;;;;2621187;54;20499;-83
2022/08/23 14:40:03;;;;;;;7.40;6.83;;;32.20;1.00;;;;;;2620378;54;20156;-81
2022/08/23 14:45:51;;;;;;;8.00;7.40;;;31.70;1.00;;;;;;2622868;46;20372;-83
2022/08/23 14:51:42;;;;;;;7.70;7.10;;;31.90;1.00;;;;;;2628795;54;20397;-83
2022/08/23 14:57:30;;;;;;;6.70;6.17;;;33.40;1.00;;;;;;2628956;54;20441;-85
2022/08/23 15:03:26;;;;;;;7.33;6.83;;;32.60;1.00;;;;;;2629108;54;20124;-86
2022/08/23 15:09:14;;;;;;;7.17;6.30;;;32.40;1.00;;;;;;2626272;54;20884;-84
2022/08/23 15:18:24;;;;;;;6.93;6.20;;;32.90;1.00;;;;;;2625875;54;20462;-85
2022/08/23 15:24:12;;;;;;;8.50;7.80;;;31.10;1.00;;;;;;2625686;54;20940;-83
2022/08/23 15:30:01;;;;;;;7.90;7.30;;;32.60;1.00;;;;;;2626289;54;20114;-84
2022/08/23 15:35:53;;;;;;;10.50;8.10;;;31.00;1.00;;;;;;2627075;54;20469;-84
2022/08/23 15:41:57;;;;;;;8.90;8.10;;;31.70;1.00;;;;;;2617645;46;20393;-84
2022/08/23 15:47:48;;;;;;;7.60;7.00;;;34.50;1.00;;;;;;2617573;54;20134;-85
2022/08/23 15:56:57;;;;;;;7.40;6.70;;;34.90;1.00;;;;;;2616948;54;20426;-83
2022/08/23 16:02:45;;;;;;;8.60;7.80;;;32.90;1.00;;;;;;2616512;54;20123;-84
2022/08/23 16:08:35;;;;;;;10.30;8.00;;;32.60;1.00;;;;;;2615412;54;20434;-80
2022/08/23 16:18:18;;;;;;;9.03;7.23;;;33.30;1.00;;;;;;2616671;54;20437;-80
2022/08/23 16:24:07;;;;;;;6.97;6.47;;;32.40;1.00;;;;;;2616572;54;20381;-80
2022/08/23 16:29:54;;;;;;;7.10;6.57;;;32.10;1.00;;;;;;2616825;54;20432;-79
2022/08/23 16:35:42;;;;;;;12.60;6.83;;;32.20;1.00;;;;;;2616844;54;20684;-80
2022/08/23 16:41:30;;;;;;;9.50;5.90;;;31.60;1.00;;;;;;2616597;54;20123;-79
2022/08/23 16:47:18;;;;;;;7.30;6.60;;;33.50;1.00;;;;;;2616910;54;20123;-79
2022/08/23 16:53:05;;;;;;;9.30;6.30;;;34.20;1.00;;;;;;2616522;54;20152;-80
2022/08/23 16:58:55;;;;;;;7.00;6.40;;;31.20;1.00;;;;;;2616596;54;20145;-81
2022/08/23 17:04:43;;;;;;;7.13;6.53;;;30.90;1.00;;;;;;2616836;54;20916;-79
2022/08/23 17:10:32;;;;;;;10.63;6.67;;;29.70;1.00;;;;;;2617109;39;20509;-79
2022/08/23 17:16:21;;;;;;;6.90;6.50;;;29.20;1.00;;;;;;2616550;54;20350;-81
2022/08/23 17:25:35;;;;;;;7.00;6.50;;;29.00;1.00;;;;;;2617906;54;20399;-87
2022/08/23 17:31:23;;;;;;;7.40;6.20;;;28.90;1.00;;;;;;2620216;54;20380;-90
2022/08/23 17:37:20;;;;;;;7.07;6.53;;;28.60;1.00;;;;;;2619417;54;20483;-88
2022/08/23 17:43:08;;;;;;;6.27;5.87;;;28.50;1.00;;;;;;2621789;54;20393;-90
2022/08/23 17:48:56;;;;;;;7.27;5.93;;;28.30;1.00;;;;;;2620209;54;20132;-85
2022/08/23 17:54:44;;;;;;;9.90;6.10;;;28.20;1.00;;;;;;2621502;54;20147;-82
2022/08/23 18:00:34;;;;;;;7.07;6.40;;;28.00;1.60;;;;;;2617800;39;20513;-81
2022/08/23 18:06:22;;;;;;;9.13;5.97;;;27.80;2.30;;;;;;2617230;54;20390;-82
2022/08/23 18:12:10;;;;;;;10.70;9.73;;;27.70;2.60;;;;;;2617127;54;20145;-82
2022/08/23 18:17:59;;;;;;;6.23;5.63;;;27.40;3.80;;;;;;2617395;54;20131;-82
2022/08/23 18:21:02;;;;;;;11.97;11.03;;;27.30;3.80;;;;;;2617218;54;20945;-82
2022/08/23 18:23:28;;;;;;;8.60;8.00;;;27.10;4.60;;;;;;2616368;46;20990;-82
2022/08/23 18:29:16;;;;;;;15.43;14.23;;;26.80;7.20;;;;;;2615829;54;20130;-82
2022/08/23 18:35:05;;;;;;;9.00;8.20;;;26.40;8.00;;;;;;2616542;31;20811;-81
2022/08/23 18:40:52;;;;;;;7.80;7.30;;;26.00;10.10;;;;;;2615739;54;20397;-82
2022/08/23 18:50:02;;;;;;;29.20;24.77;;;25.40;13.50;;;;;;2615393;54;20390;-84
2022/08/23 18:55:49;;;;;;;162.43;145.47;;;25.20;16.80;;;;;;2615511;54;20467;-82
2022/08/23 19:01:41;;;;;;;84.63;75.80;;;25.00;19.10;;;;;;2617093;54;20119;-81
2022/08/23 19:07:28;;;;;;;75.23;67.53;;;24.70;21.50;;;;;;2617491;39;20757;-82
2022/08/23 19:13:16;;;;;;;62.70;56.27;;;24.40;24.00;;;;;;2617458;54;21042;-80
2022/08/23 19:19:04;;;;;;;23.80;21.50;;;24.30;24.60;;;;;;2616919;54;20135;-81
2022/08/23 19:24:52;;;;;;;18.83;17.20;;;24.30;27.60;;;;;;2617292;54;20459;-82
2022/08/23 19:30:40;;;;;;;13.40;10.70;;;24.10;27.20;;;;;;2617058;54;20133;-79
2022/08/23 19:36:28;;;;;;;8.97;7.90;;;24.10;29.10;;;;;;2616934;54;20419;-82
2022/08/23 19:42:16;;;;;;;8.83;6.97;;;24.10;27.50;;;;;;2616894;54;20150;-81
2022/08/23 19:48:04;;;;;;;16.90;6.27;;;24.20;28.50;;;;;;2616772;54;20140;-81
2022/08/23 20:00:04;;;;;;;14.03;7.13;;;24.10;32.10;;;;;;2617656;31;20880;-80
2022/08/23 20:05:52;;;;;;;11.00;7.07;;;24.10;30.80;;;;;;2617817;39;20732;-80
2022/08/23 20:11:40;;;;;;;10.50;6.73;;;24.00;33.80;;;;;;2617219;54;20730;-81
2022/08/23 20:17:28;;;;;;;11.80;6.67;;;24.00;33.90;;;;;;2616560;54;20395;-82
2022/08/23 20:29:22;;;;;;;8.07;6.30;;;23.90;37.00;;;;;;2617276;54;20359;-81
2022/08/23 20:35:10;;;;;;;10.33;7.43;;;23.90;37.80;;;;;;2617143;54;20126;-81
2022/08/23 20:40:58;;;;;;;8.20;6.70;;;23.70;39.20;;;;;;2617145;54;20383;-82
2022/08/23 20:46:47;;;;;;;17.20;7.00;;;23.80;38.90;;;;;;2617455;47;20525;-80
2022/08/23 20:52:35;;;;;;;7.30;6.37;;;23.70;42.90;;;;;;2617147;54;20472;-80
2022/08/23 20:58:24;;;;;;;10.10;6.50;;;23.60;50.00;;;;;;2617029;54;20118;-81
2022/08/23 21:04:12;;;;;;;15.00;7.97;;;23.40;53.80;;;;;;2616890;54;20378;-81
2022/08/23 21:10:00;;;;;;;10.60;7.63;;;23.30;60.40;;;;;;2616756;54;20394;-80
2022/08/23 21:15:48;;;;;;;8.70;7.67;;;23.10;60.20;;;;;;2616903;54;20146;-80
2022/08/23 21:25:35;;;;;;;6.93;6.23;;;23.20;65.30;;;;;;2616946;54;21057;-80
2022/08/23 21:31:25;;;;;;;7.80;7.00;;;23.20;65.60;;;;;;2617566;54;20916;-80
2022/08/23 21:37:13;;;;;;;9.00;6.70;;;23.00;66.90;;;;;;2617663;54;20435;-80
2022/08/23 21:43:00;;;;;;;12.00;7.10;;;22.80;73.10;;;;;;2618136;39;20688;-80
2022/08/23 21:48:48;;;;;;;6.83;6.07;;;22.50;89.10;;;;;;2617916;54;20243;-80
2022/08/23 21:54:36;;;;;;;6.80;6.20;;;22.20;93.40;;;;;;2617486;54;20127;-80
2022/08/23 22:00:24;;;;;;;9.97;7.20;;;22.00;99.90;;;;;;2619094;54;20119;-84
2022/08/23 22:06:16;;;;;;;8.33;6.90;;;21.70;99.90;;;;;;2619058;54;20123;-84
2022/08/23 22:12:04;;;;;;;7.87;7.00;;;21.70;99.90;;;;;;2618265;31;20857;-85
2022/08/23 22:17:52;;;;;;;11.43;6.40;;;21.60;99.90;;;;;;2618627;54;20391;-81
2022/08/23 22:21:05;;;;;;;7.20;6.50;;;21.60;99.90;;;;;;2618133;54;20407;-85
2022/08/23 22:23:31;;;;;;;8.23;7.40;;;21.60;99.90;;;;;;2617821;54;20142;-83
2022/08/23 22:29:19;;;;;;;7.40;6.67;;;21.50;99.90;;;;;;2617218;54;20394;-79
2022/08/23 22:35:09;;;;;;;10.27;6.50;;;21.40;99.90;;;;;;2616967;54;20242;-79
2022/08/23 22:40:57;;;;;;;8.63;7.83;;;21.20;99.90;;;;;;2617050;54;20995;-80
2022/08/23 22:46:44;;;;;;;9.70;6.77;;;21.10;99.90;;;;;;2616953;54;20152;-78
2022/08/23 22:52:32;;;;;;;7.53;6.83;;;20.90;99.90;;;;;;2617028;54;20668;-79
2022/08/23 22:58:20;;;;;;;7.83;7.03;;;20.90;99.90;;;;;;2616952;54;20139;-79
2022/08/23 23:04:10;;;;;;;13.60;7.17;;;21.00;99.90;;;;;;2616917;54;20130;-79
2022/08/23 23:09:58;;;;;;;8.37;7.67;;;20.80;99.90;;;;;;2616962;54;20394;-80
2022/08/23 23:15:45;;;;;;;8.37;7.43;;;20.70;99.90;;;;;;2616881;54;20142;-79
2022/08/23 23:25:39;;;;;;;13.07;7.53;;;20.80;99.90;;;;;;2616727;54;20383;-78
2022/08/23 23:31:27;;;;;;;9.90;7.40;;;20.60;99.90;;;;;;2616788;54;20461;-80
2022/08/23 23:37:15;;;;;;;8.73;8.03;;;20.30;99.90;;;;;;2617911;54;20245;-83
2022/08/23 23:43:03;;;;;;;15.53;10.03;;;20.30;99.90;;;;;;2617193;54;20405;-83
2022/08/23 23:48:51;;;;;;;10.77;7.80;;;20.10;99.90;;;;;;2616979;54;20376;-82
2022/08/23 23:54:40;;;;;;;8.40;7.47;;;20.10;99.90;;;;;;2617141;54;20377;-83
